Medaryville, Indiana
Current Conditions -  °F | °C
As of 6:15 AM on Tuesday 27 Jan 2015 (Local Time) from KRZL Reporting Station
Overcast Overcast  
Wind Chill: 18°   Ceiling: 600
Heat Index: 27°   Visibility: 7mi
Dew Point: 27°   Wind: 8mph
Humidity: 100%   Direction: 50°NE
Pressure: 30.03"   Gusts: NA
Location:  41.08°N, 86.89°W
Report Text: KRZL 271215Z AUTO 05007KT 7SM OVC006 M03/M03 A3003 RMK AO2
Loading
Personal Weather Stations






























Interactive Weather Map New forecast layout! Learn more

10-Day Weather Forecast

Advertisements
Track Severe Weather on mobile